Time;durP1;ratioP1;P1;durP2;ratioP2;P2;SDS_P1;SDS_P2;PMS_P1;PMS_P2;Temp;Humidity;BMP_temperature;BMP_pressure;BME280_temperature;BME280_humidity;BME280_pressure;Samples;Min_cycle;Max_cycle;Signal;HPM_P1;HPM_P2
2023/09/09 00:01:48;;;;;;;10.90;7.60;;;;;;;17.26;100.00;98850.59;4916325;29;20459;-75
2023/09/09 00:04:14;;;;;;;14.68;8.05;;;;;;;17.20;100.00;98850.78;4917991;29;20055;-75
2023/09/09 00:06:40;;;;;;;11.82;7.90;;;;;;;17.09;100.00;98842.38;4933039;29;20090;-74
2023/09/09 00:09:05;;;;;;;13.88;9.73;;;;;;;17.12;100.00;98851.19;4930370;29;20030;-74
2023/09/09 00:11:31;;;;;;;15.52;9.40;;;;;;;16.98;100.00;98842.44;4949211;29;20032;-75
2023/09/09 00:13:57;;;;;;;17.98;9.30;;;;;;;17.05;100.00;98848.56;4919507;29;20062;-74
2023/09/09 00:16:22;;;;;;;15.75;9.27;;;;;;;17.07;100.00;98851.91;4936060;29;20031;-75
2023/09/09 00:18:48;;;;;;;18.23;10.18;;;;;;;17.05;100.00;98874.00;4936978;29;20055;-75
2023/09/09 00:21:14;;;;;;;13.00;9.98;;;;;;;17.00;100.00;98863.00;4918747;29;20039;-74
2023/09/09 00:23:39;;;;;;;12.57;9.80;;;;;;;16.88;100.00;98844.97;4935676;29;20065;-74
2023/09/09 00:26:05;;;;;;;13.30;9.73;;;;;;;16.86;100.00;98854.22;4938408;29;20038;-74
2023/09/09 00:28:30;;;;;;;11.40;8.27;;;;;;;16.64;100.00;98826.72;4912553;29;20119;-74
2023/09/09 00:30:55;;;;;;;16.80;8.48;;;;;;;16.82;100.00;98860.41;4904102;29;20056;-74
2023/09/09 00:33:21;;;;;;;11.85;8.23;;;;;;;16.69;100.00;98836.94;4936519;29;20484;-74
2023/09/09 00:35:46;;;;;;;11.52;8.32;;;;;;;16.84;100.00;98863.75;4936720;29;20027;-75
2023/09/09 00:38:13;;;;;;;13.65;8.77;;;;;;;16.81;100.00;98873.25;4918457;29;20043;-75
2023/09/09 00:40:42;;;;;;;11.63;8.95;;;;;;;16.85;100.00;98871.72;4936707;29;20118;-74
2023/09/09 00:43:08;;;;;;;12.57;8.25;;;;;;;16.79;100.00;98858.19;4919455;29;20050;-74
2023/09/09 00:45:33;;;;;;;10.65;7.88;;;;;;;16.75;100.00;98851.53;4912877;29;20388;-74
2023/09/09 00:47:59;;;;;;;11.25;8.45;;;;;;;16.62;100.00;98845.25;4919823;29;20082;-74
2023/09/09 00:50:24;;;;;;;14.05;8.50;;;;;;;16.72;100.00;98860.22;4936659;29;20038;-74
2023/09/09 00:52:49;;;;;;;13.30;9.38;;;;;;;16.67;100.00;98847.28;4935519;29;20031;-74
2023/09/09 00:55:15;;;;;;;10.50;7.70;;;;;;;16.56;100.00;98842.69;4919796;29;20034;-75
2023/09/09 00:57:41;;;;;;;15.45;8.35;;;;;;;16.47;100.00;98846.84;4918870;29;20038;-74
2023/09/09 01:00:09;;;;;;;14.43;8.27;;;;;;;16.57;100.00;98869.72;4934189;29;21735;-74
2023/09/09 01:02:44;;;;;;;10.48;8.18;;;;;;;16.57;100.00;98864.28;4934827;29;20054;-74
2023/09/09 01:05:10;;;;;;;13.23;8.32;;;;;;;16.56;100.00;98859.06;4933800;29;20055;-74
2023/09/09 01:07:46;;;;;;;14.30;7.97;;;;;;;16.44;100.00;98854.44;4940841;28;20019;-74
2023/09/09 01:10:13;;;;;;;13.07;8.40;;;;;;;16.45;100.00;98852.53;4933866;29;20391;-74
2023/09/09 01:12:39;;;;;;;11.35;8.27;;;;;;;16.46;100.00;98856.94;4935356;29;20060;-74
2023/09/09 01:15:06;;;;;;;12.10;8.18;;;;;;;16.38;100.00;98855.41;4938209;29;20134;-74
2023/09/09 01:17:34;;;;;;;17.20;8.75;;;;;;;16.42;100.00;98866.66;4900047;29;20039;-75
2023/09/09 01:20:00;;;;;;;20.85;8.70;;;;;;;16.31;100.00;98862.88;4934328;29;20095;-75
2023/09/09 01:22:25;;;;;;;15.00;10.23;;;;;;;16.41;100.00;98882.22;4935769;29;20481;-74
2023/09/09 01:24:51;;;;;;;19.88;9.88;;;;;;;16.28;100.00;98857.91;4916648;29;20076;-75
2023/09/09 01:27:16;;;;;;;17.73;8.52;;;;;;;16.33;100.00;98868.13;4918944;29;20027;-74
2023/09/09 01:29:41;;;;;;;12.30;8.98;;;;;;;16.26;100.00;98861.94;4940049;29;20027;-74
2023/09/09 01:32:06;;;;;;;16.15;8.05;;;;;;;16.38;100.00;98881.88;4932911;29;20575;-74
2023/09/09 01:34:32;;;;;;;11.43;7.55;;;;;;;16.32;100.00;98877.34;4936188;29;20035;-75
2023/09/09 01:36:57;;;;;;;11.98;7.82;;;;;;;16.29;100.00;98875.13;4933821;29;20087;-75
2023/09/09 01:39:23;;;;;;;11.60;8.05;;;;;;;16.15;100.00;98855.44;4919041;29;20066;-74
2023/09/09 01:41:48;;;;;;;9.10;7.57;;;;;;;16.24;100.00;98875.81;4935662;29;20023;-74
2023/09/09 01:44:13;;;;;;;10.55;7.70;;;;;;;16.15;100.00;98855.44;4918377;29;20038;-75
2023/09/09 01:46:38;;;;;;;12.85;7.95;;;;;;;16.31;100.00;98871.06;4915129;29;20506;-75
2023/09/09 01:49:04;;;;;;;13.45;8.82;;;;;;;16.16;100.00;98852.44;4934489;29;20023;-75
2023/09/09 01:51:32;;;;;;;16.23;8.70;;;;;;;16.19;100.00;98856.59;4919107;29;20496;-75
2023/09/09 01:53:57;;;;;;;11.50;8.40;;;;;;;16.23;100.00;98857.78;4938249;29;20023;-74
2023/09/09 01:56:22;;;;;;;11.02;8.52;;;;;;;16.31;100.00;98872.97;4940913;28;20047;-74
2023/09/09 01:58:47;;;;;;;11.18;8.00;;;;;;;16.11;100.00;98854.22;4938236;29;20035;-75
2023/09/09 02:01:13;;;;;;;12.13;7.88;;;;;;;16.04;100.00;98848.09;4930383;29;20084;-75
2023/09/09 02:03:38;;;;;;;11.60;7.50;;;;;;;16.17;100.00;98869.69;4920467;29;20035;-74
2023/09/09 02:06:03;;;;;;;13.45;8.30;;;;;;;16.09;100.00;98859.13;4955003;28;20023;-74
2023/09/09 02:08:29;;;;;;;12.10;9.35;;;;;;;15.99;100.00;98851.53;4937763;29;20559;-74
2023/09/09 02:10:54;;;;;;;15.00;8.68;;;;;;;15.94;100.00;98851.41;4918565;29;20047;-75
2023/09/09 02:13:19;;;;;;;13.27;8.52;;;;;;;15.89;100.00;98852.09;4937546;29;20051;-75
2023/09/09 02:15:44;;;;;;;12.18;7.95;;;;;;;15.73;100.00;98850.09;4923512;29;20514;-74
2023/09/09 02:18:10;;;;;;;12.55;8.18;;;;;;;15.84;100.00;98868.34;4937296;29;20036;-74
2023/09/09 02:20:35;;;;;;;8.93;7.20;;;;;;;15.66;100.00;98855.59;4924283;29;20016;-75
2023/09/09 02:23:00;;;;;;;15.25;8.85;;;;;;;15.65;100.00;98855.84;4920910;29;20027;-74
2023/09/09 02:25:26;;;;;;;19.95;8.18;;;;;;;15.67;100.00;98851.81;4929659;29;20480;-74
2023/09/09 02:27:51;;;;;;;15.27;9.05;;;;;;;15.66;100.00;98849.31;4935092;29;20476;-74
2023/09/09 02:30:16;;;;;;;13.70;8.30;;;;;;;15.70;100.00;98861.47;4934547;29;20159;-74
2023/09/09 02:32:43;;;;;;;16.63;9.15;;;;;;;15.74;100.00;98859.91;4934733;29;20039;-74
2023/09/09 02:35:09;;;;;;;14.32;8.98;;;;;;;15.75;100.00;98867.06;4935370;29;20110;-75
2023/09/09 02:37:35;;;;;;;12.10;8.75;;;;;;;15.69;100.00;98863.38;4935004;29;20163;-76
2023/09/09 02:40:00;;;;;;;15.48;8.60;;;;;;;15.53;100.00;98836.72;4935545;29;20046;-74
2023/09/09 02:42:26;;;;;;;16.60;9.32;;;;;;;15.85;100.00;98858.25;4935205;29;20126;-74
2023/09/09 02:44:52;;;;;;;15.18;8.23;;;;;;;15.67;100.00;98860.00;4934947;29;20030;-74
2023/09/09 02:47:18;;;;;;;14.35;9.13;;;;;;;15.78;100.00;98863.84;4932849;29;20035;-74
2023/09/09 02:49:43;;;;;;;19.73;10.70;;;;;;;15.69;100.00;98873.44;4935127;29;20031;-74
2023/09/09 02:52:09;;;;;;;19.95;11.95;;;;;;;15.54;100.00;98854.78;4932902;29;20032;-74
2023/09/09 02:54:36;;;;;;;19.98;11.43;;;;;;;15.62;100.00;98865.34;4934721;29;22352;-75
2023/09/09 02:57:03;;;;;;;15.45;10.27;;;;;;;15.51;100.00;98858.78;4914710;29;20028;-75
2023/09/09 02:59:29;;;;;;;16.05;10.10;;;;;;;15.60;100.00;98861.19;4928081;29;20134;-74
2023/09/09 03:01:55;;;;;;;15.27;11.23;;;;;;;15.57;100.00;98860.56;4931732;29;20035;-74
2023/09/09 03:04:20;;;;;;;16.45;11.50;;;;;;;15.47;100.00;98862.22;4932527;29;20085;-75
2023/09/09 03:06:45;;;;;;;14.00;10.45;;;;;;;15.57;100.00;98874.22;4918258;29;20043;-74
2023/09/09 03:09:13;;;;;;;18.20;10.68;;;;;;;15.53;100.00;98875.72;4920924;29;20424;-75
2023/09/09 03:11:39;;;;;;;15.68;10.75;;;;;;;15.41;100.00;98855.81;4935068;29;20031;-74
2023/09/09 03:14:04;;;;;;;14.52;10.10;;;;;;;15.39;100.00;98871.56;4935146;29;20408;-75
2023/09/09 03:16:29;;;;;;;16.35;10.65;;;;;;;15.32;100.00;98857.19;4917135;29;20456;-75
2023/09/09 03:18:54;;;;;;;12.50;9.68;;;;;;;15.39;100.00;98873.47;4935172;29;20028;-75
2023/09/09 03:21:20;;;;;;;13.38;9.40;;;;;;;15.27;100.00;98841.56;4935884;29;20094;-74
2023/09/09 03:23:45;;;;;;;11.23;9.05;;;;;;;15.38;100.00;98867.19;4936390;29;20484;-75
2023/09/09 03:26:10;;;;;;;12.93;8.95;;;;;;;15.36;100.00;98872.03;4917734;29;20028;-75
2023/09/09 03:28:36;;;;;;;15.40;9.73;;;;;;;15.26;100.00;98841.78;4917424;29;20022;-75
2023/09/09 03:31:01;;;;;;;14.70;8.57;;;;;;;15.33;100.00;98850.69;4922009;29;20034;-75
2023/09/09 03:33:27;;;;;;;10.68;8.38;;;;;;;15.31;100.00;98858.28;4909840;29;20032;-75
2023/09/09 03:35:53;;;;;;;11.55;8.73;;;;;;;15.31;100.00;98866.44;4938611;29;20110;-75
2023/09/09 03:38:18;;;;;;;11.63;7.93;;;;;;;15.32;100.00;98855.28;4928921;29;20031;-75
2023/09/09 03:40:44;;;;;;;10.57;7.95;;;;;;;15.38;100.00;98867.19;4934256;29;20523;-75
2023/09/09 03:43:11;;;;;;;10.02;7.25;;;;;;;15.10;100.00;98825.03;4917583;29;20408;-75
2023/09/09 03:45:36;;;;;;;10.27;7.35;;;;;;;15.27;100.00;98849.72;4920532;29;20069;-75
2023/09/09 03:48:04;;;;;;;12.63;7.82;;;;;;;15.34;100.00;98866.81;4936612;29;20476;-75
2023/09/09 03:50:29;;;;;;;11.52;8.05;;;;;;;15.23;100.00;98847.69;4934305;29;20058;-75
2023/09/09 03:52:54;;;;;;;13.20;7.43;;;;;;;15.05;100.00;98824.06;4938405;29;20035;-75
2023/09/09 03:55:20;;;;;;;10.27;7.45;;;;;;;15.07;100.00;98847.28;4926267;29;20032;-75
2023/09/09 03:57:45;;;;;;;11.55;8.10;;;;;;;15.09;100.00;98860.66;4934872;29;20111;-75
2023/09/09 04:00:11;;;;;;;11.38;7.20;;;;;;;15.09;100.00;98852.50;4937540;29;20031;-75
2023/09/09 04:02:36;;;;;;;11.13;7.70;;;;;;;15.13;100.00;98856.44;4937827;29;20039;-75
2023/09/09 04:05:01;;;;;;;10.05;7.20;;;;;;;14.97;100.00;98841.56;4919374;29;20131;-74
2023/09/09 04:07:27;;;;;;;10.98;7.57;;;;;;;15.01;100.00;98848.22;4936588;29;20050;-75
2023/09/09 04:09:53;;;;;;;12.77;7.85;;;;;;;14.94;100.00;98852.94;4937147;29;20031;-75
2023/09/09 04:12:18;;;;;;;14.13;9.00;;;;;;;14.85;100.00;98840.66;4939862;29;20127;-76
2023/09/09 04:14:44;;;;;;;16.77;9.73;;;;;;;15.04;100.00;98879.63;4919847;29;20118;-75
2023/09/09 04:17:09;;;;;;;13.52;9.15;;;;;;;14.83;100.00;98843.66;4930958;29;20474;-75
2023/09/09 04:19:34;;;;;;;16.10;9.20;;;;;;;15.05;100.00;98870.38;4919083;29;20030;-75
2023/09/09 04:22:00;;;;;;;13.18;9.60;;;;;;;14.92;100.00;98857.75;4919722;29;20020;-75
2023/09/09 04:24:25;;;;;;;18.52;9.38;;;;;;;14.77;100.00;98843.72;4941051;28;20110;-75
2023/09/09 04:26:50;;;;;;;13.75;9.07;;;;;;;14.90;100.00;98862.59;4936633;29;20055;-75
2023/09/09 04:29:16;;;;;;;12.77;8.60;;;;;;;14.71;100.00;98842.75;4927581;29;20028;-75
2023/09/09 04:31:43;;;;;;;14.95;7.93;;;;;;;14.79;100.00;98869.66;4935813;29;20032;-75
2023/09/09 04:34:08;;;;;;;12.13;8.05;;;;;;;14.68;100.00;98857.66;4928581;29;20024;-75
2023/09/09 04:36:34;;;;;;;13.40;7.80;;;;;;;14.61;100.00;98865.06;4929292;29;20032;-75
2023/09/09 04:38:59;;;;;;;12.02;7.75;;;;;;;14.66;100.00;98856.22;4929900;29;20094;-74
2023/09/09 04:41:24;;;;;;;10.18;7.28;;;;;;;14.62;100.00;98841.41;4920016;29;20036;-72
2023/09/09 04:43:49;;;;;;;14.23;9.38;;;;;;;14.85;100.00;98871.47;4932743;29;20104;-75
2023/09/09 04:46:15;;;;;;;18.35;11.32;;;;;;;14.67;100.00;98852.41;4937618;29;20103;-76
2023/09/09 04:48:40;;;;;;;16.27;10.90;;;;;;;14.82;100.00;98879.28;4930651;29;20667;-74
2023/09/09 04:51:05;;;;;;;16.20;11.82;;;;;;;14.78;100.00;98878.91;4932532;29;20106;-71
2023/09/09 04:53:31;;;;;;;17.67;12.45;;;;;;;14.87;100.00;98887.59;4935886;29;20409;-71
2023/09/09 04:55:56;;;;;;;15.95;11.82;;;;;;;14.89;100.00;98891.75;4941270;28;20031;-71
2023/09/09 04:58:21;;;;;;;17.83;12.88;;;;;;;14.78;100.00;98870.75;4919942;29;20028;-70
2023/09/09 05:00:47;;;;;;;19.90;12.35;;;;;;;15.01;100.00;98905.44;4921695;29;20062;-70
2023/09/09 05:03:12;;;;;;;16.50;11.23;;;;;;;14.92;100.00;98893.19;4935289;29;20028;-70
2023/09/09 05:05:37;;;;;;;16.77;11.73;;;;;;;15.03;100.00;98897.03;4923395;29;20035;-68
2023/09/09 05:08:03;;;;;;;23.92;13.13;;;;;;;14.97;100.00;98904.22;4934194;29;20106;-70
2023/09/09 05:10:29;;;;;;;23.20;13.65;;;;;;;15.04;100.00;98904.16;4931715;29;20031;-74
2023/09/09 05:12:55;;;;;;;18.33;12.07;;;;;;;15.01;100.00;98894.53;4936846;29;20031;-77
2023/09/09 05:15:20;;;;;;;15.50;11.32;;;;;;;15.17;100.00;98900.38;4942777;29;20428;-80
2023/09/09 05:17:46;;;;;;;16.23;10.85;;;;;;;15.18;100.00;98900.16;4927162;29;20027;-81
2023/09/09 05:20:11;;;;;;;16.35;11.40;;;;;;;15.24;100.00;98893.78;4940719;29;20028;-78
2023/09/09 05:22:36;;;;;;;19.75;11.45;;;;;;;15.20;100.00;98889.06;4928582;29;20046;-79
2023/09/09 05:25:02;;;;;;;17.55;11.75;;;;;;;15.40;100.00;98903.19;4924755;29;20062;-75
2023/09/09 05:27:28;;;;;;;17.83;11.45;;;;;;;15.45;100.00;98892.44;4918698;29;20171;-76
2023/09/09 05:29:53;;;;;;;16.77;12.38;;;;;;;15.56;100.00;98891.66;4915300;29;20369;-77
2023/09/09 05:32:18;;;;;;;16.80;12.30;;;;;;;15.90;100.00;98902.91;4932769;29;20035;-76
2023/09/09 05:34:44;;;;;;;14.80;10.18;;;;;;;16.92;100.00;98882.50;4938497;29;20442;-76
2023/09/09 05:37:09;;;;;;;11.43;8.40;;;;;;;18.72;100.00;98861.63;4917692;29;20507;-76
2023/09/09 05:39:34;;;;;;;11.10;8.05;;;;;;;20.00;100.00;98822.59;4917762;29;20016;-78
2023/09/09 05:42:00;;;;;;;15.50;7.40;;;;;;;21.32;100.00;98828.94;4933818;29;20023;-76
2023/09/09 05:44:25;;;;;;;10.05;7.20;;;;;;;22.11;100.00;98844.09;4918321;29;20019;-72
2023/09/09 05:46:50;;;;;;;9.18;7.20;;;;;;;22.81;100.00;98830.41;4934914;29;20560;-77
2023/09/09 05:49:16;;;;;;;11.18;7.45;;;;;;;23.48;100.00;98821.75;4919560;29;20020;-78
2023/09/09 05:51:41;;;;;;;9.10;6.80;;;;;;;24.10;100.00;98828.41;4934249;29;20091;-78
2023/09/09 05:54:06;;;;;;;11.10;6.78;;;;;;;24.62;100.00;98834.25;4919944;29;20024;-73
2023/09/09 05:56:32;;;;;;;13.73;5.93;;;;;;;25.22;100.00;98850.38;4921376;29;20568;-69
2023/09/09 05:58:58;;;;;;;11.40;6.65;;;;;;;25.34;100.00;98846.06;4925625;29;20032;-69
2023/09/09 06:01:23;;;;;;;9.55;6.38;;;;;;;25.83;100.00;98846.66;4941684;29;20031;-69
2023/09/09 06:03:49;;;;;;;11.52;5.90;;;;;;;25.70;100.00;98839.13;4934122;29;20043;-69
2023/09/09 06:06:14;;;;;;;13.93;6.20;;;;;;;27.42;100.00;98846.38;4917198;29;20090;-69
2023/09/09 06:08:40;;;;;;;7.93;6.85;;;;;;;28.45;94.32;98856.59;4927167;29;20503;-69
2023/09/09 06:11:06;;;;;;;9.40;6.38;;;;;;;29.10;83.88;98843.88;4932957;29;20027;-70
2023/09/09 06:13:31;;;;;;;9.63;6.53;;;;;;;29.80;80.11;98846.75;4938414;29;20115;-69
2023/09/09 06:15:56;;;;;;;13.27;5.80;;;;;;;29.59;80.70;98849.34;4938745;28;20019;-69
2023/09/09 06:18:21;;;;;;;9.10;5.68;;;;;;;30.34;73.68;98858.31;4935248;29;20032;-69
2023/09/09 06:20:48;;;;;;;10.10;6.00;;;;;;;31.18;69.09;98851.03;4926371;29;20064;-69
2023/09/09 06:23:14;;;;;;;8.70;5.57;;;;;;;33.23;61.30;98856.31;4932726;29;20038;-71
2023/09/09 06:25:40;;;;;;;10.43;6.13;;;;;;;33.24;58.65;98855.16;4933850;29;20043;-69
2023/09/09 06:28:05;;;;;;;12.43;5.85;;;;;;;34.00;55.38;98856.22;4932926;29;20020;-70
2023/09/09 06:30:32;;;;;;;9.48;5.50;;;;;;;34.26;54.25;98864.16;4927598;29;20023;-69
2023/09/09 06:32:57;;;;;;;9.23;5.30;;;;;;;34.97;51.97;98855.94;4929239;29;20119;-69
2023/09/09 06:35:22;;;;;;;7.18;5.70;;;;;;;34.54;51.06;98863.31;4933711;29;20115;-70
2023/09/09 06:37:48;;;;;;;11.82;6.07;;;;;;;34.60;51.98;98867.50;4933783;28;20172;-68
2023/09/09 06:40:13;;;;;;;11.27;5.75;;;;;;;34.38;52.26;98874.53;4934863;29;20035;-78
2023/09/09 06:42:38;;;;;;;11.43;5.85;;;;;;;33.28;53.90;98858.09;4919521;29;20712;-77
2023/09/09 06:45:04;;;;;;;13.82;6.53;;;;;;;34.03;52.19;98868.72;4934241;29;20028;-77
2023/09/09 06:47:29;;;;;;;9.85;5.82;;;;;;;34.83;49.70;98869.69;4913957;29;20500;-78
2023/09/09 06:49:55;;;;;;;10.23;5.85;;;;;;;34.33;50.86;98865.56;4912139;29;20051;-78
2023/09/09 06:52:20;;;;;;;9.30;6.22;;;;;;;33.39;51.66;98862.03;4933377;29;20019;-78
2023/09/09 06:54:45;;;;;;;7.80;5.78;;;;;;;34.91;51.29;98858.22;4912013;29;20059;-78
2023/09/09 06:57:11;;;;;;;9.95;5.32;;;;;;;34.76;49.67;98859.06;4915026;29;20031;-75
2023/09/09 06:59:36;;;;;;;7.22;5.40;;;;;;;35.66;49.29;98875.25;4915856;29;20118;-75
2023/09/09 07:02:02;;;;;;;8.20;5.22;;;;;;;35.10;50.53;98874.38;4934818;29;20102;-75
2023/09/09 07:04:28;;;;;;;7.38;5.45;;;;;;;35.66;49.16;98875.25;4935766;29;20383;-77
2023/09/09 07:06:53;;;;;;;7.63;5.50;;;;;;;35.80;49.31;98872.75;4924318;29;20031;-76
2023/09/09 07:09:20;;;;;;;7.70;5.97;;;;;;;36.05;47.92;98878.06;4931640;29;20024;-78
2023/09/09 07:11:46;;;;;;;8.60;5.03;;;;;;;37.69;46.21;98875.22;4933891;29;20484;-77
2023/09/09 07:14:11;;;;;;;6.63;4.93;;;;;;;36.56;47.56;98863.78;4933797;29;20038;-77
2023/09/09 07:16:36;;;;;;;11.43;5.33;;;;;;;37.45;46.08;98875.69;4930187;29;20396;-78
2023/09/09 07:19:02;;;;;;;8.13;5.30;;;;;;;36.89;45.79;98870.75;4942350;28;20381;-77
2023/09/09 07:21:29;;;;;;;7.75;5.07;;;;;;;36.07;48.09;98881.34;4937830;29;20106;-78
2023/09/09 07:23:54;;;;;;;7.50;5.63;;;;;;;37.26;46.45;98871.78;4930917;29;20102;-77
2023/09/09 07:26:19;;;;;;;9.73;4.93;;;;;;;37.67;45.27;98883.25;4921680;29;20500;-75
2023/09/09 07:28:45;;;;;;;7.53;5.15;;;;;;;37.78;45.13;98862.81;4936284;29;20059;-75
2023/09/09 07:31:11;;;;;;;8.45;5.20;;;;;;;38.27;44.27;98887.22;4937140;29;20027;-70
2023/09/09 07:33:36;;;;;;;10.55;5.18;;;;;;;38.11;45.05;98873.34;4938150;29;20035;-77
2023/09/09 07:36:02;;;;;;;10.63;4.75;;;;;;;38.66;43.84;98890.47;4937205;29;20500;-76
2023/09/09 07:38:27;;;;;;;9.63;5.53;;;;;;;38.85;43.71;98865.97;4937938;29;20031;-78
2023/09/09 07:41:00;;;;;;;9.63;5.13;;;;;;;39.93;42.46;98870.31;4941545;29;20472;-79
2023/09/09 07:43:25;;;;;;;8.23;4.80;;;;;;;39.99;41.87;98880.09;4936801;29;20032;-77
2023/09/09 07:45:51;;;;;;;12.07;5.43;;;;;;;39.69;41.93;98864.13;4918899;29;20550;-77
2023/09/09 07:48:20;;;;;;;7.90;4.93;;;;;;;39.75;42.03;98876.72;4944011;29;20095;-75
2023/09/09 07:50:54;;;;;;;9.40;4.80;;;;;;;39.82;41.72;98879.59;4942207;29;20163;-78
2023/09/09 07:53:20;;;;;;;5.88;4.47;;;;;;;40.26;41.29;98858.72;4941694;29;20028;-77
2023/09/09 07:55:50;;;;;;;7.32;4.90;;;;;;;39.41;41.62;98867.66;4938537;29;20039;-78
2023/09/09 07:58:17;;;;;;;9.85;4.82;;;;;;;40.23;40.97;98876.53;4938093;29;20111;-75
2023/09/09 08:00:44;;;;;;;7.40;5.05;;;;;;;40.58;39.89;98874.97;4941700;29;20416;-75
2023/09/09 08:03:10;;;;;;;7.47;4.40;;;;;;;41.83;39.12;98893.91;4923327;29;20086;-74
2023/09/09 08:05:37;;;;;;;6.10;4.50;;;;;;;40.91;39.89;98887.97;4951240;29;20503;-76
2023/09/09 08:08:04;;;;;;;7.13;4.47;;;;;;;41.03;39.27;98886.75;4914859;29;20032;-72
2023/09/09 08:10:29;;;;;;;6.18;4.47;;;;;;;41.51;38.76;98883.47;4935766;29;20031;-72
2023/09/09 08:12:55;;;;;;;8.13;4.67;;;;;;;41.75;38.80;98889.50;4919409;29;20401;-72
2023/09/09 08:15:21;;;;;;;7.27;4.40;;;;;;;42.21;37.20;98891.31;4936315;29;20032;-74
2023/09/09 08:17:47;;;;;;;5.60;4.70;;;;;;;41.34;39.72;98887.13;4934346;29;20293;-74
2023/09/09 08:20:12;;;;;;;6.18;4.97;;;;;;;41.84;37.81;98884.16;4937015;29;20034;-74
2023/09/09 08:22:37;;;;;;;6.80;4.87;;;;;;;41.75;38.19;98895.16;4936831;29;20110;-74
2023/09/09 08:25:03;;;;;;;5.37;4.47;;;;;;;40.52;40.33;98887.94;4938341;29;20287;-74
2023/09/09 08:27:28;;;;;;;6.47;4.68;;;;;;;42.53;37.89;98873.28;4919373;29;20271;-74
2023/09/09 08:29:56;;;;;;;8.40;4.77;;;;;;;41.51;38.30;98892.00;4937613;29;20031;-73
2023/09/09 08:32:21;;;;;;;9.38;5.00;;;;;;;40.93;39.36;98893.25;4936327;29;20342;-73
2023/09/09 08:34:46;;;;;;;6.70;4.90;;;;;;;41.37;39.06;98892.00;4937204;29;20035;-73
2023/09/09 08:37:11;;;;;;;6.73;4.43;;;;;;;41.74;38.38;98885.00;4950860;29;20481;-74
2023/09/09 08:39:38;;;;;;;6.07;4.55;;;;;;;42.76;36.26;98875.56;4935857;29;20291;-74
2023/09/09 08:42:23;;;;;;;5.85;4.78;;;;;;;40.98;38.52;98904.19;4920779;29;20518;-72
2023/09/09 08:45:00;;;;;;;9.25;5.60;;;;;;;41.50;39.04;98890.38;4934901;29;20035;-74
2023/09/09 08:47:29;;;;;;;6.60;5.38;;;;;;;41.80;37.59;98898.41;4928713;29;20038;-76
2023/09/09 08:49:58;;;;;;;4.95;4.45;;;;;;;41.36;38.76;98893.22;4917699;29;20027;-77
2023/09/09 08:52:25;;;;;;;5.28;4.32;;;;;;;42.62;36.94;98891.47;4935846;29;20071;-77
2023/09/09 08:54:52;;;;;;;5.32;4.72;;;;;;;42.52;36.76;98900.09;4942957;28;20031;-76
2023/09/09 08:57:17;;;;;;;8.02;5.03;;;;;;;42.20;37.03;98878.34;4935825;29;20028;-76
2023/09/09 08:59:46;;;;;;;4.72;4.30;;;;;;;41.62;37.74;98885.47;4918879;29;20031;-75
2023/09/09 09:02:12;;;;;;;9.02;4.78;;;;;;;42.04;37.34;98890.19;4933597;29;20407;-77
2023/09/09 09:04:38;;;;;;;9.27;4.82;;;;;;;41.04;38.45;98905.41;4936783;29;20024;-76
2023/09/09 09:07:04;;;;;;;5.50;4.85;;;;;;;42.67;36.47;98876.00;4919658;29;20047;-76
2023/09/09 09:09:30;;;;;;;7.72;4.95;;;;;;;40.16;38.88;98892.69;4938824;29;20340;-79
2023/09/09 09:11:59;;;;;;;6.07;4.15;;;;;;;41.56;37.63;98848.97;4924738;29;20059;-79
2023/09/09 09:14:24;;;;;;;5.78;4.68;;;;;;;42.21;37.08;98891.31;4921158;29;20039;-77
2023/09/09 09:16:51;;;;;;;5.73;4.13;;;;;;;42.27;36.45;98901.03;4924208;29;20499;-79
2023/09/09 09:19:26;;;;;;;8.52;4.18;;;;;;;42.87;36.10;98887.69;4923539;29;20803;-77
2023/09/09 09:21:52;;;;;;;5.28;3.95;;;;;;;43.19;35.79;98869.50;4935433;29;20428;-80
2023/09/09 09:24:27;;;;;;;4.80;4.10;;;;;;;42.42;36.66;98898.94;4938650;29;20062;-77
2023/09/09 09:26:54;;;;;;;5.32;3.80;;;;;;;41.72;36.62;98891.13;4929717;29;20507;-79
2023/09/09 09:29:20;;;;;;;5.15;3.80;;;;;;;42.68;36.80;98884.13;4955075;28;20039;-75
2023/09/09 09:31:53;;;;;;;4.20;3.58;;;;;;;44.62;34.59;98865.66;4942414;29;20031;-75
2023/09/09 09:34:19;;;;;;;4.47;3.50;;;;;;;44.57;34.36;98879.59;4923672;29;20087;-77
2023/09/09 09:36:45;;;;;;;5.43;3.28;;;;;;;44.71;34.42;98867.97;4935240;29;20539;-73
2023/09/09 09:39:11;;;;;;;5.43;3.70;;;;;;;44.92;34.23;98875.38;4933950;29;20036;-73
2023/09/09 09:41:39;;;;;;;4.35;3.60;;;;;;;45.68;33.32;98869.91;4927130;29;20024;-73
2023/09/09 09:44:17;;;;;;;4.40;3.10;;;;;;;46.32;32.84;98875.50;4925253;29;20396;-73
2023/09/09 09:46:42;;;;;;;4.45;3.70;;;;;;;46.10;32.63;98872.31;4933685;29;20082;-73
2023/09/09 09:49:08;;;;;;;5.88;3.25;;;;;;;45.05;33.93;98864.13;4918012;29;20023;-73
2023/09/09 09:51:43;;;;;;;3.65;3.15;;;;;;;45.45;33.82;98870.75;4912110;29;20032;-73
2023/09/09 09:54:09;;;;;;;4.30;3.20;;;;;;;44.23;34.13;98871.13;4933962;29;20115;-73
2023/09/09 09:56:38;;;;;;;3.70;3.20;;;;;;;45.67;33.39;98867.47;4934208;29;20516;-73
2023/09/09 09:59:05;;;;;;;4.38;3.42;;;;;;;45.31;33.36;98871.03;4938137;29;20114;-73
2023/09/09 10:01:32;;;;;;;3.85;2.80;;;;;;;47.63;31.63;98867.63;4929003;29;20381;-73
2023/09/09 10:04:06;;;;;;;3.97;3.00;;;;;;;47.59;31.43;98869.03;4939088;29;20032;-73
2023/09/09 10:06:33;;;;;;;5.07;2.92;;;;;;;46.96;30.86;98862.50;4940954;29;20485;-73
2023/09/09 10:09:25;;;;;;;5.38;3.50;;;;;;;45.54;31.95;98872.19;4937311;29;20027;-73
2023/09/09 10:12:01;;;;;;;3.60;3.30;;;;;;;44.26;33.32;98870.28;4929384;29;20024;-73
2023/09/09 10:14:28;;;;;;;4.95;3.08;;;;;;;45.83;32.58;98867.56;4932471;29;20043;-73
2023/09/09 10:16:53;;;;;;;4.25;3.33;;;;;;;45.37;33.78;98862.75;4930758;29;20059;-73
2023/09/09 10:19:19;;;;;;;4.63;3.60;;;;;;;45.47;32.18;98871.13;4939763;29;20484;-73
2023/09/09 10:21:47;;;;;;;4.50;3.60;;;;;;;45.31;33.12;98853.09;4916474;29;20027;-73
2023/09/09 10:24:14;;;;;;;4.85;3.40;;;;;;;46.66;31.54;98860.78;4934533;29;20114;-73
2023/09/09 10:26:41;;;;;;;4.47;3.28;;;;;;;45.01;33.20;98858.47;4937103;29;22198;-73
2023/09/09 10:29:08;;;;;;;5.20;3.42;;;;;;;44.08;33.65;98842.03;4932922;29;20027;-72
2023/09/09 10:31:35;;;;;;;5.28;3.30;;;;;;;45.31;33.53;98836.75;4937015;29;20035;-73
2023/09/09 10:34:02;;;;;;;4.85;3.35;;;;;;;47.36;31.41;98855.72;4942628;29;20060;-73
2023/09/09 10:36:31;;;;;;;5.85;3.28;;;;;;;46.08;32.71;98857.63;4940768;28;20038;-73
2023/09/09 10:38:57;;;;;;;5.40;3.10;;;;;;;46.28;33.12;98852.69;4937571;29;20032;-72
2023/09/09 10:41:22;;;;;;;4.22;3.20;;;;;;;48.37;31.01;98853.56;4935467;29;20031;-73
2023/09/09 10:43:47;;;;;;;3.90;3.00;;;;;;;47.62;31.44;98840.25;4933599;29;20031;-73
2023/09/09 10:46:13;;;;;;;4.70;3.30;;;;;;;48.30;31.29;98848.09;4936852;29;20084;-73
2023/09/09 10:48:39;;;;;;;4.68;3.33;;;;;;;46.55;31.46;98843.06;4941586;29;20419;-73
2023/09/09 10:51:06;;;;;;;5.85;3.00;;;;;;;46.80;31.52;98848.19;4938463;29;20071;-74
2023/09/09 10:53:32;;;;;;;6.28;3.00;;;;;;;47.37;31.03;98840.13;4935192;28;20675;-74
2023/09/09 10:56:21;;;;;;;4.78;3.08;;;;;;;47.49;31.41;98838.59;4926413;29;20445;-73
2023/09/09 10:58:49;;;;;;;4.50;2.90;;;;;;;47.57;31.69;98837.94;4933186;29;20377;-74
2023/09/09 11:01:23;;;;;;;6.57;3.40;;;;;;;46.32;30.63;98846.88;4931249;29;20028;-74
2023/09/09 11:03:48;;;;;;;6.03;3.20;;;;;;;46.74;30.87;98842.19;4935487;29;20035;-73
2023/09/09 11:06:36;;;;;;;3.97;3.00;;;;;;;46.37;31.90;98843.50;4938056;29;20170;-74
2023/09/09 11:09:02;;;;;;;4.32;3.22;;;;;;;46.19;31.14;98849.59;4940561;29;20039;-73
2023/09/09 11:11:37;;;;;;;5.07;3.22;;;;;;;45.38;32.43;98832.94;4934423;29;20444;-73
2023/09/09 11:14:05;;;;;;;4.60;3.50;;;;;;;47.42;31.53;98840.38;4927580;29;20504;-73
2023/09/09 11:16:32;;;;;;;3.78;2.92;;;;;;;47.52;30.28;98847.09;4932942;29;20036;-74
2023/09/09 11:19:16;;;;;;;4.63;3.15;;;;;;;47.28;31.23;98840.78;4933756;29;20023;-73
2023/09/09 11:21:53;;;;;;;4.00;3.08;;;;;;;47.56;29.99;98844.94;4936961;29;20040;-75